CheckWX is a tool to help pilots better visualize weather data.  It is not intended as a substitute for an official pre-flight weather briefing.

20:46:02 UTC

SCVD METAR
Pichoy Airport
Valdivia, Chile
Current

46 mins ago

SCVD 112000Z 28005KT 250V330 9999 BKN023 OVC063 09/07 Q1016
Observed
Jul-11 @ 20:00 UTC
Wind
  • 280° at 5 KTS
Visibility
10,000+ meters
Flight Rules
MVFR
Cloud Levels
  • Broken at 2,300' AGL
  • Overcast at 6,300' AGL
Temperature
C / 48°F
Dewpoint
C / 45°F
Humidity
87%
Altimeter
30" Hg
Pressure
1015.92 hPa
Previous

2 hours ago

SCVD 111900Z 24006KT 220V280 8000 -SHRA SCT013 BKN020 OVC035 09/08 Q1016
Observed
Jul-11 @ 19:00 UTC
Wind
  • 240° at 6 KTS
Visibility
7998 meters
Flight Rules
MVFR
Conditions
Light Showers, Rain
Cloud Levels
  • Scattered at 1,300' AGL
  • Broken at 2,000' AGL
  • Overcast at 3,500' AGL
Temperature
C / 48°F
Dewpoint
C / 46°F
Humidity
94%
Altimeter
30" Hg
Pressure
1015.92 hPa
Previous

3 hours ago

SCVD 111800Z 23005KT 4000 -SHRA SCT006 BKN018 OVC030 08/08 Q1016
Observed
Jul-11 @ 18:00 UTC
Wind
  • 230° at 5 KTS
Visibility
4007 meters
Flight Rules
IFR
Conditions
Light Showers, Rain
Cloud Levels
  • Scattered at 600' AGL
  • Broken at 1,800' AGL
  • Overcast at 3,000' AGL
Temperature
C / 46°F
Dewpoint
C / 46°F
Humidity
100%
Altimeter
30" Hg
Pressure
1015.92 hPa